createdAt,value
2022-09-24T00:00:53.273Z,6.43
2022-09-24T00:03:21.265Z,6.43
2022-09-24T00:05:50.617Z,6.90
2022-09-24T00:08:19.149Z,6.70
2022-09-24T00:10:48.815Z,6.73
2022-09-24T00:13:18.082Z,6.43
2022-09-24T00:15:47.264Z,7.13
2022-09-24T00:18:16.138Z,6.10
2022-09-24T00:20:43.842Z,7.17
2022-09-24T00:23:13.195Z,7.23
2022-09-24T00:26:01.678Z,6.80
2022-09-24T00:28:29.658Z,7.33
2022-09-24T00:30:59.040Z,7.40
2022-09-24T00:33:28.111Z,7.07
2022-09-24T00:36:00.384Z,6.70
2022-09-24T00:38:29.237Z,6.70
2022-09-24T00:40:56.765Z,6.57
2022-09-24T00:43:26.064Z,6.60
2022-09-24T00:45:56.471Z,6.27
2022-09-24T00:48:24.564Z,6.40
2022-09-24T00:50:52.125Z,6.60
2022-09-24T00:53:22.614Z,5.80
2022-09-24T00:55:54.550Z,6.43
2022-09-24T00:58:23.435Z,6.33
2022-09-24T01:00:53.430Z,5.80
2022-09-24T01:03:23.915Z,6.33
2022-09-24T01:05:52.214Z,6.53
2022-09-24T01:08:20.929Z,6.17
2022-09-24T01:10:59.261Z,7.13
2022-09-24T01:13:41.203Z,7.03
2022-09-24T01:16:14.941Z,7.57
2022-09-24T01:18:47.341Z,8.37
2022-09-24T01:21:28.998Z,7.77
2022-09-24T01:24:02.561Z,6.77
2022-09-24T01:26:51.145Z,7.43
2022-09-24T01:29:31.263Z,6.90
2022-09-24T01:32:05.749Z,6.17
2022-09-24T01:34:38.598Z,6.10
2022-09-24T01:37:07.660Z,6.50
2022-09-24T01:39:37.145Z,6.63
2022-09-24T01:42:05.323Z,6.40
2022-09-24T01:44:35.265Z,7.00
2022-09-24T01:47:06.245Z,6.57
2022-09-24T01:49:33.814Z,6.13
2022-09-24T01:52:04.734Z,6.10
2022-09-24T01:54:35.522Z,6.03
2022-09-24T01:57:06.967Z,6.33
2022-09-24T01:59:39.978Z,5.70
2022-09-24T02:02:11.162Z,6.23
2022-09-24T02:04:41.849Z,5.87
2022-09-24T02:07:13.431Z,5.90
2022-09-24T02:09:42.676Z,6.07
2022-09-24T02:12:12.544Z,5.90
2022-09-24T02:14:44.382Z,6.23
2022-09-24T02:17:12.533Z,6.37
2022-09-24T02:19:40.893Z,6.33
2022-09-24T02:22:09.401Z,5.83
2022-09-24T02:24:44.181Z,6.40
2022-09-24T02:27:11.901Z,6.00
2022-09-24T02:29:40.866Z,5.90
2022-09-24T02:32:10.483Z,6.57
2022-09-24T02:34:40.214Z,6.13
2022-09-24T02:37:10.174Z,6.33
2022-09-24T02:39:37.771Z,6.23
2022-09-24T02:42:06.419Z,6.00
2022-09-24T02:44:34.028Z,6.20
2022-09-24T02:47:03.274Z,5.83
2022-09-24T02:49:30.756Z,6.87
2022-09-24T02:51:58.281Z,5.93
2022-09-24T02:54:26.246Z,6.73
2022-09-24T02:56:54.345Z,6.23
2022-09-24T02:59:21.813Z,5.97
2022-09-24T03:01:49.987Z,6.50
2022-09-24T03:04:19.739Z,6.67
2022-09-24T03:06:47.315Z,6.20
2022-09-24T03:09:15.079Z,6.30
2022-09-24T03:11:43.056Z,6.23
2022-09-24T03:14:10.524Z,6.57
2022-09-24T03:16:38.075Z,6.37
2022-09-24T03:19:05.630Z,6.07
2022-09-24T03:21:34.501Z,6.47
2022-09-24T03:24:03.708Z,5.90
2022-09-24T03:26:31.786Z,6.50
2022-09-24T03:28:59.301Z,6.20
2022-09-24T03:31:25.856Z,6.40
2022-09-24T03:33:53.457Z,6.47
2022-09-24T03:36:22.617Z,6.00
2022-09-24T03:38:54.227Z,6.13
2022-09-24T03:41:21.770Z,6.47
2022-09-24T03:43:49.241Z,6.37
2022-09-24T03:46:17.218Z,6.60
2022-09-24T03:48:47.012Z,6.47
2022-09-24T03:51:15.783Z,6.60
2022-09-24T03:53:43.633Z,7.00
2022-09-24T03:56:12.897Z,6.47
2022-09-24T03:58:41.345Z,6.17
2022-09-24T04:01:10.402Z,5.93
2022-09-24T04:03:38.140Z,6.30
2022-09-24T04:06:06.544Z,6.70
2022-09-24T04:08:34.306Z,6.13
2022-09-24T04:11:01.799Z,6.60
2022-09-24T04:13:30.933Z,6.47
2022-09-24T04:16:03.067Z,7.13
2022-09-24T04:18:30.617Z,6.70
2022-09-24T04:21:00.111Z,6.60
2022-09-24T04:23:27.689Z,6.47
2022-09-24T04:25:55.243Z,7.00
2022-09-24T04:28:22.788Z,6.73
2022-09-24T04:30:51.652Z,6.67
2022-09-24T04:33:19.290Z,7.10
2022-09-24T04:35:47.295Z,6.67
2022-09-24T04:38:15.000Z,6.83
2022-09-24T04:40:42.510Z,6.40
2022-09-24T04:43:10.040Z,6.53
2022-09-24T04:45:38.298Z,7.37
2022-09-24T04:48:07.319Z,6.80
2022-09-24T04:50:34.964Z,7.40
2022-09-24T04:53:02.986Z,7.30
2022-09-24T04:55:32.024Z,6.83
2022-09-24T04:57:59.983Z,6.90
2022-09-24T05:00:27.497Z,7.23
2022-09-24T05:02:57.377Z,7.33
2022-09-24T05:05:26.527Z,7.10
2022-09-24T05:07:56.586Z,6.93
2022-09-24T05:10:24.810Z,6.50
2022-09-24T05:12:52.367Z,6.77
2022-09-24T05:15:20.169Z,6.20
2022-09-24T05:17:48.308Z,6.83
2022-09-24T05:20:16.769Z,6.73
2022-09-24T05:22:46.561Z,6.97
2022-09-24T05:25:15.421Z,6.53
2022-09-24T05:27:45.362Z,6.80
2022-09-24T05:30:13.567Z,7.07
2022-09-24T05:32:41.044Z,6.30
2022-09-24T05:35:09.357Z,6.03
2022-09-24T05:37:37.489Z,7.33
2022-09-24T05:40:21.632Z,6.47
2022-09-24T05:42:49.155Z,6.00
2022-09-24T05:45:17.981Z,6.50
2022-09-24T05:47:46.153Z,6.87
2022-09-24T05:50:13.841Z,6.83
2022-09-24T05:52:42.266Z,6.53
2022-09-24T05:55:11.989Z,6.57
2022-09-24T05:57:39.727Z,6.90
2022-09-24T06:00:08.549Z,6.80
2022-09-24T06:02:36.125Z,6.80
2022-09-24T06:05:03.785Z,6.57
2022-09-24T06:07:31.314Z,6.57
2022-09-24T06:09:59.179Z,7.40
2022-09-24T06:12:28.321Z,6.63
2022-09-24T06:14:55.791Z,7.00
2022-09-24T06:17:23.584Z,6.60
2022-09-24T06:19:51.991Z,6.70
2022-09-24T06:22:24.988Z,7.30
2022-09-24T06:24:55.198Z,7.00
2022-09-24T06:27:22.701Z,6.77
2022-09-24T06:29:51.533Z,6.90
2022-09-24T06:32:19.704Z,7.17
2022-09-24T06:34:47.422Z,7.17
2022-09-24T06:37:15.009Z,7.20
2022-09-24T06:39:42.551Z,7.73
2022-09-24T06:42:10.174Z,8.97
2022-09-24T06:44:37.870Z,13.63
2022-09-24T06:47:06.723Z,8.00
2022-09-24T06:49:34.580Z,7.00
2022-09-24T06:52:02.738Z,7.10
2022-09-24T06:54:30.201Z,6.80
2022-09-24T06:56:57.886Z,7.47
2022-09-24T06:59:25.339Z,12.30
2022-09-24T07:01:52.841Z,34.23
2022-09-24T07:04:21.927Z,11.03
2022-09-24T07:07:07.163Z,8.80
2022-09-24T07:09:36.204Z,8.27
2022-09-24T07:12:05.363Z,6.33
2022-09-24T07:14:32.841Z,6.10
2022-09-24T07:17:00.287Z,7.13
2022-09-24T07:19:29.100Z,6.87
2022-09-24T07:21:56.672Z,6.57
2022-09-24T07:24:24.328Z,6.97
2022-09-24T07:26:52.248Z,7.40
2022-09-24T07:29:19.805Z,7.20
2022-09-24T07:31:47.459Z,7.17
2022-09-24T07:34:15.056Z,7.80
2022-09-24T07:36:43.998Z,7.60
2022-09-24T07:39:11.521Z,7.50
2022-09-24T07:41:42.270Z,7.67
2022-09-24T07:44:10.217Z,8.33
2022-09-24T07:46:37.886Z,8.83
2022-09-24T07:49:05.726Z,8.27
2022-09-24T07:51:33.215Z,8.37
2022-09-24T07:54:02.234Z,8.73
2022-09-24T07:56:29.955Z,10.17
2022-09-24T07:58:57.631Z,9.73
2022-09-24T08:01:26.428Z,9.97
2022-09-24T08:03:54.530Z,10.97
2022-09-24T08:06:22.933Z,10.47
2022-09-24T08:08:50.541Z,11.30
2022-09-24T08:11:21.278Z,10.17
2022-09-24T08:13:49.119Z,11.13
2022-09-24T08:16:17.293Z,11.60
2022-09-24T08:18:45.144Z,12.13
2022-09-24T08:21:13.170Z,12.30
2022-09-24T08:23:40.918Z,12.30
2022-09-24T08:26:08.815Z,12.77
2022-09-24T08:28:37.970Z,13.13
2022-09-24T08:31:08.844Z,14.60
2022-09-24T08:33:37.367Z,13.50
2022-09-24T08:36:07.464Z,13.60
2022-09-24T08:38:35.009Z,13.67
2022-09-24T08:41:15.250Z,14.20
2022-09-24T08:43:53.453Z,14.30
2022-09-24T08:46:40.307Z,13.83
2022-09-24T08:49:09.120Z,14.00
2022-09-24T08:51:41.100Z,13.57
2022-09-24T08:54:10.720Z,12.80
2022-09-24T08:56:39.728Z,12.90
2022-09-24T08:59:16.081Z,14.10
2022-09-24T09:01:48.836Z,12.73
2022-09-24T09:04:26.131Z,13.90
2022-09-24T09:07:01.582Z,13.90
2022-09-24T09:09:39.642Z,13.93
2022-09-24T09:12:13.790Z,14.43
2022-09-24T09:14:47.730Z,14.10
2022-09-24T09:17:24.268Z,13.93
2022-09-24T09:19:57.168Z,13.13
2022-09-24T09:22:30.353Z,13.87
2022-09-24T09:25:04.297Z,12.83
2022-09-24T09:27:32.286Z,13.80
2022-09-24T09:30:07.180Z,13.33
2022-09-24T09:32:45.961Z,14.27
2022-09-24T09:35:20.185Z,15.00
2022-09-24T09:37:53.415Z,13.60
2022-09-24T09:40:32.187Z,14.10
2022-09-24T09:43:02.703Z,13.67
2022-09-24T09:45:35.374Z,13.53
2022-09-24T09:48:03.574Z,14.20
2022-09-24T09:50:35.790Z,12.67
2022-09-24T09:53:04.808Z,12.30
2022-09-24T09:55:34.302Z,12.50
2022-09-24T09:58:11.929Z,11.73
2022-09-24T10:00:41.311Z,11.50
2022-09-24T10:03:22.744Z,12.43
2022-09-24T10:05:55.130Z,12.93
2022-09-24T10:08:22.772Z,12.60
2022-09-24T10:10:56.093Z,13.33
2022-09-24T10:13:23.979Z,12.60
2022-09-24T10:15:54.591Z,12.90
2022-09-24T10:18:29.526Z,13.57
2022-09-24T10:20:58.063Z,12.20
2022-09-24T10:23:30.834Z,13.37
2022-09-24T10:26:00.970Z,12.80
2022-09-24T10:28:46.729Z,12.27
2022-09-24T10:31:19.266Z,12.73
2022-09-24T10:33:49.287Z,12.87
2022-09-24T10:36:20.246Z,12.60
2022-09-24T10:38:47.811Z,13.80
2022-09-24T10:41:17.122Z,14.20
2022-09-24T10:43:51.528Z,14.10
2022-09-24T10:46:33.456Z,13.93
2022-09-24T10:49:03.979Z,13.80
2022-09-24T10:51:37.694Z,13.70
2022-09-24T10:54:20.856Z,14.07
2022-09-24T10:56:51.646Z,13.73
2022-09-24T10:59:34.214Z,14.50
2022-09-24T11:02:21.605Z,13.13
2022-09-24T11:04:51.842Z,14.87
2022-09-24T11:07:34.552Z,14.03
2022-09-24T11:10:06.098Z,14.03
2022-09-24T11:12:37.749Z,12.77
2022-09-24T11:15:19.277Z,13.30
2022-09-24T11:18:01.390Z,13.23
2022-09-24T11:20:32.307Z,12.50
2022-09-24T11:23:13.859Z,12.40
2022-09-24T11:25:47.142Z,13.00
2022-09-24T11:28:46.602Z,12.23
2022-09-24T11:31:20.422Z,13.20
2022-09-24T11:34:04.869Z,12.90
2022-09-24T11:36:43.321Z,13.27
2022-09-24T11:39:24.656Z,12.50
2022-09-24T11:41:58.519Z,12.53
2022-09-24T11:44:47.299Z,13.53
2022-09-24T11:47:26.106Z,13.17
2022-09-24T11:50:12.039Z,15.90
2022-09-24T11:52:43.537Z,12.30
2022-09-24T11:55:16.401Z,11.73
2022-09-24T11:57:47.428Z,11.57
2022-09-24T12:00:17.601Z,11.23
2022-09-24T12:02:48.869Z,11.87
2022-09-24T12:05:22.345Z,12.50
2022-09-24T12:07:54.130Z,11.23
2022-09-24T12:10:32.817Z,11.87
2022-09-24T12:13:06.933Z,10.83
2022-09-24T12:15:42.143Z,11.07
2022-09-24T12:18:15.815Z,10.60
2022-09-24T12:20:48.541Z,10.70
2022-09-24T12:23:18.546Z,10.10
2022-09-24T12:25:47.886Z,10.00
2022-09-24T12:28:37.333Z,10.17
2022-09-24T12:31:25.451Z,9.57
2022-09-24T12:33:56.097Z,10.70
2022-09-24T12:36:30.915Z,10.53
2022-09-24T12:39:02.804Z,10.50
2022-09-24T12:41:31.815Z,10.20
2022-09-24T12:44:02.727Z,10.27
2022-09-24T12:46:34.229Z,9.93
2022-09-24T12:49:01.968Z,10.47
2022-09-24T12:51:38.263Z,10.30
2022-09-24T12:54:24.197Z,10.33
2022-09-24T12:56:51.730Z,9.77
2022-09-24T12:59:29.338Z,10.27
2022-09-24T13:02:08.335Z,10.83
2022-09-24T13:04:36.141Z,11.30
2022-09-24T13:07:29.339Z,11.17
2022-09-24T13:09:57.124Z,11.70
2022-09-24T13:12:33.039Z,11.23
2022-09-24T13:15:04.085Z,10.70
2022-09-24T13:17:34.024Z,11.73
2022-09-24T13:20:06.193Z,11.10
2022-09-24T13:22:37.472Z,11.50
2022-09-24T13:25:26.026Z,10.40
2022-09-24T13:27:58.991Z,8.40
2022-09-24T13:30:37.799Z,8.03
2022-09-24T13:33:14.694Z,7.57
2022-09-24T13:35:45.095Z,6.37
2022-09-24T13:38:21.362Z,8.10
2022-09-24T13:40:52.750Z,8.07
2022-09-24T13:43:38.341Z,7.37
2022-09-24T13:46:09.217Z,7.50
2022-09-24T13:48:38.182Z,7.03
2022-09-24T13:51:08.258Z,6.47
2022-09-24T13:53:39.079Z,7.30
2022-09-24T13:56:12.911Z,6.97
2022-09-24T13:58:41.573Z,7.07
2022-09-24T14:01:13.423Z,6.87
2022-09-24T14:03:41.809Z,6.97
2022-09-24T14:06:14.352Z,7.53
2022-09-24T14:08:44.413Z,8.30
2022-09-24T14:11:16.762Z,8.50
2022-09-24T14:13:45.742Z,7.53
2022-09-24T14:16:16.043Z,8.17
2022-09-24T14:18:43.800Z,8.00
2022-09-24T14:21:12.902Z,9.20
2022-09-24T14:23:45.338Z,17.77
2022-09-24T14:26:18.634Z,8.93
2022-09-24T14:28:46.494Z,11.87
2022-09-24T14:31:14.005Z,9.53
2022-09-24T14:33:41.846Z,10.63
2022-09-24T14:36:12.059Z,14.40
2022-09-24T14:38:53.376Z,9.10
2022-09-24T14:41:22.939Z,9.40
2022-09-24T14:43:52.721Z,9.27
2022-09-24T14:46:22.797Z,10.13
2022-09-24T14:48:51.094Z,10.17
2022-09-24T14:51:25.743Z,11.27
2022-09-24T14:54:01.962Z,11.50
2022-09-24T14:56:31.085Z,11.50
2022-09-24T14:58:58.870Z,10.93
2022-09-24T15:01:31.785Z,10.63
2022-09-24T15:04:01.022Z,10.37
2022-09-24T15:06:30.292Z,10.47
2022-09-24T15:09:01.407Z,10.73
2022-09-24T15:11:31.279Z,10.47
2022-09-24T15:14:00.320Z,9.90
2022-09-24T15:16:31.512Z,10.50
2022-09-24T15:19:11.027Z,10.70
2022-09-24T15:21:38.552Z,10.27
2022-09-24T15:24:07.752Z,10.87
2022-09-24T15:26:36.729Z,10.10
2022-09-24T15:29:05.180Z,15.73
2022-09-24T15:31:32.782Z,12.10
2022-09-24T15:34:00.278Z,12.93
2022-09-24T15:36:27.884Z,10.30
2022-09-24T15:39:00.521Z,10.00
2022-09-24T15:41:29.398Z,10.53
2022-09-24T15:43:58.154Z,11.07
2022-09-24T15:46:26.295Z,10.87
2022-09-24T15:48:53.874Z,11.00
2022-09-24T15:51:22.803Z,11.83
2022-09-24T15:53:51.006Z,11.37
2022-09-24T15:56:19.009Z,11.23
2022-09-24T15:58:47.849Z,12.47
2022-09-24T16:01:18.669Z,12.20
2022-09-24T16:03:46.178Z,10.97
2022-09-24T16:06:14.268Z,11.27
2022-09-24T16:08:43.062Z,10.83
2022-09-24T16:11:10.691Z,12.17
2022-09-24T16:13:38.396Z,10.20
2022-09-24T16:16:08.801Z,11.07
2022-09-24T16:18:38.050Z,11.77
2022-09-24T16:21:07.116Z,11.10
2022-09-24T16:23:34.927Z,15.30
2022-09-24T16:26:02.862Z,14.73
2022-09-24T16:28:30.773Z,13.70
2022-09-24T16:30:58.633Z,11.13
2022-09-24T16:33:27.713Z,13.37
2022-09-24T16:35:55.307Z,15.43
2022-09-24T16:38:23.448Z,11.13
2022-09-24T16:40:51.939Z,11.77
2022-09-24T16:43:19.629Z,11.93
2022-09-24T16:45:47.241Z,13.40
2022-09-24T16:48:14.842Z,13.10
2022-09-24T16:50:43.766Z,11.40
2022-09-24T16:53:11.308Z,12.60
2022-09-24T16:55:38.871Z,13.20
2022-09-24T16:58:06.388Z,14.83
2022-09-24T17:00:33.957Z,14.33
2022-09-24T17:03:01.554Z,14.83
2022-09-24T17:05:29.118Z,14.77
2022-09-24T17:07:58.048Z,11.33
2022-09-24T17:10:24.562Z,12.90
2022-09-24T17:12:52.632Z,13.03
2022-09-24T17:15:21.433Z,12.10
2022-09-24T17:17:50.808Z,12.80
2022-09-24T17:20:19.286Z,12.63
2022-09-24T17:22:47.970Z,13.20
2022-09-24T17:25:17.111Z,13.33
2022-09-24T17:27:44.873Z,12.73
2022-09-24T17:30:13.506Z,13.57
2022-09-24T17:32:40.991Z,15.97
2022-09-24T17:35:09.138Z,14.77
2022-09-24T17:37:36.889Z,16.60
2022-09-24T17:40:05.106Z,20.17
2022-09-24T17:42:34.674Z,17.80
2022-09-24T17:45:02.236Z,19.40
2022-09-24T17:47:49.883Z,21.30
2022-09-24T17:50:17.717Z,21.53
2022-09-24T17:52:45.262Z,24.37
2022-09-24T17:55:12.943Z,33.27
2022-09-24T17:57:41.929Z,22.53
2022-09-24T18:00:10.965Z,17.33
2022-09-24T18:02:38.547Z,19.00
2022-09-24T18:05:07.308Z,18.53
2022-09-24T18:07:34.819Z,18.27
2022-09-24T18:10:04.906Z,17.00
2022-09-24T18:12:32.455Z,17.37
2022-09-24T18:15:01.297Z,18.60
2022-09-24T18:17:28.761Z,16.97
2022-09-24T18:19:56.302Z,16.63
2022-09-24T18:22:24.209Z,16.33
2022-09-24T18:24:51.793Z,18.90
2022-09-24T18:27:19.338Z,17.13
2022-09-24T18:29:46.999Z,17.43
2022-09-24T18:32:15.926Z,18.27
2022-09-24T18:34:43.504Z,18.67
2022-09-24T18:37:11.217Z,16.63
2022-09-24T18:39:38.762Z,16.97
2022-09-24T18:42:06.429Z,16.03
2022-09-24T18:44:34.473Z,15.63
2022-09-24T18:47:02.077Z,13.23
2022-09-24T18:49:31.069Z,12.40
2022-09-24T18:51:58.698Z,13.07
2022-09-24T18:54:26.209Z,13.53
2022-09-24T18:56:53.666Z,12.20
2022-09-24T18:59:21.281Z,12.90
2022-09-24T19:01:50.503Z,11.90
2022-09-24T19:04:19.254Z,11.60
2022-09-24T19:06:49.697Z,12.77
2022-09-24T19:09:18.138Z,12.00
2022-09-24T19:11:46.464Z,12.17
2022-09-24T19:14:17.854Z,11.80
2022-09-24T19:16:45.733Z,12.87
2022-09-24T19:19:13.761Z,11.87
2022-09-24T19:21:42.078Z,12.10
2022-09-24T19:24:11.912Z,12.20
2022-09-24T19:26:39.484Z,12.17
2022-09-24T19:29:07.409Z,11.93
2022-09-24T19:31:37.448Z,12.23
2022-09-24T19:34:06.176Z,11.00
2022-09-24T19:36:43.063Z,11.83
2022-09-24T19:39:14.901Z,12.20
2022-09-24T19:41:42.790Z,11.43
2022-09-24T19:44:11.418Z,11.80
2022-09-24T19:46:39.402Z,11.67
2022-09-24T19:49:07.551Z,12.50
2022-09-24T19:51:36.212Z,13.43
2022-09-24T19:54:06.176Z,17.00
2022-09-24T19:56:35.427Z,16.50
2022-09-24T19:59:03.555Z,14.50
2022-09-24T20:01:32.924Z,14.37
2022-09-24T20:04:03.986Z,13.57
2022-09-24T20:06:33.840Z,12.97
2022-09-24T20:09:02.038Z,13.27
2022-09-24T20:11:32.281Z,13.27
2022-09-24T20:14:01.982Z,12.67
2022-09-24T20:16:32.833Z,13.43
2022-09-24T20:19:01.279Z,13.63
2022-09-24T20:21:33.708Z,13.70
2022-09-24T20:24:03.463Z,13.70
2022-09-24T20:26:49.111Z,13.57
2022-09-24T20:29:19.522Z,13.73
2022-09-24T20:31:51.105Z,13.63
2022-09-24T20:34:18.821Z,14.03
2022-09-24T20:36:46.344Z,12.93
2022-09-24T20:39:14.388Z,13.87
2022-09-24T20:41:43.098Z,13.97
2022-09-24T20:44:10.885Z,14.40
2022-09-24T20:46:40.239Z,14.20
2022-09-24T20:49:07.934Z,21.87
2022-09-24T20:51:35.674Z,21.00
2022-09-24T20:54:03.225Z,17.53
2022-09-24T20:56:31.438Z,16.27
2022-09-24T20:59:01.174Z,18.40
2022-09-24T21:01:28.876Z,18.73
2022-09-24T21:03:58.109Z,18.73
2022-09-24T21:06:25.797Z,27.63
2022-09-24T21:08:53.836Z,20.63
2022-09-24T21:11:23.896Z,19.10
2022-09-24T21:13:52.412Z,17.80
2022-09-24T21:16:22.705Z,19.87
2022-09-24T21:18:54.730Z,19.87
2022-09-24T21:21:25.978Z,20.60
2022-09-24T21:23:58.329Z,23.47
2022-09-24T21:26:27.578Z,21.90
2022-09-24T21:29:00.095Z,19.83
2022-09-24T21:31:32.602Z,18.33
2022-09-24T21:34:04.929Z,19.33
2022-09-24T21:36:44.291Z,18.80
2022-09-24T21:39:18.463Z,18.50
2022-09-24T21:41:51.702Z,19.30
2022-09-24T21:44:23.502Z,19.13
2022-09-24T21:46:54.810Z,19.60
2022-09-24T21:49:26.869Z,18.20
2022-09-24T21:51:59.720Z,18.13
2022-09-24T21:54:32.317Z,19.57
2022-09-24T21:57:02.192Z,18.57
2022-09-24T21:59:48.852Z,19.00
2022-09-24T22:02:21.919Z,19.27
2022-09-24T22:04:52.303Z,18.70
2022-09-24T22:07:25.311Z,17.73
2022-09-24T22:09:55.292Z,19.03
2022-09-24T22:12:24.735Z,19.00
2022-09-24T22:14:57.251Z,19.63
2022-09-24T22:17:29.489Z,19.17
2022-09-24T22:19:58.332Z,18.90
2022-09-24T22:22:29.983Z,19.50
2022-09-24T22:25:00.463Z,19.27
2022-09-24T22:27:29.139Z,20.13
2022-09-24T22:29:59.230Z,20.23
2022-09-24T22:32:30.726Z,20.03
2022-09-24T22:35:17.804Z,20.07
2022-09-24T22:37:53.383Z,19.40
2022-09-24T22:40:21.964Z,20.17
2022-09-24T22:42:51.349Z,19.43
2022-09-24T22:45:21.251Z,20.23
2022-09-24T22:47:49.409Z,20.27
2022-09-24T22:50:19.398Z,20.50
2022-09-24T22:52:50.510Z,20.10
2022-09-24T22:55:19.241Z,19.80
2022-09-24T22:57:48.674Z,20.93
2022-09-24T23:00:21.220Z,20.20
2022-09-24T23:02:51.382Z,26.37
2022-09-24T23:05:20.684Z,27.47
2022-09-24T23:07:51.718Z,31.97
2022-09-24T23:10:20.034Z,22.70
2022-09-24T23:12:49.756Z,21.37
2022-09-24T23:15:20.179Z,19.03
2022-09-24T23:17:49.024Z,19.60
2022-09-24T23:20:17.566Z,21.17
2022-09-24T23:22:50.480Z,20.07
2022-09-24T23:25:24.467Z,20.70
2022-09-24T23:27:52.145Z,19.93
2022-09-24T23:30:23.360Z,19.43
2022-09-24T23:32:52.351Z,19.07
2022-09-24T23:35:19.937Z,20.30
2022-09-24T23:37:49.788Z,20.17
2022-09-24T23:40:23.337Z,19.90
2022-09-24T23:42:56.145Z,18.47
2022-09-24T23:45:26.019Z,18.87
2022-09-24T23:47:55.650Z,18.30
2022-09-24T23:50:25.922Z,18.13
2022-09-24T23:52:54.021Z,17.33
2022-09-24T23:55:26.350Z,19.07
2022-09-24T23:57:57.964Z,19.27
